Capitol Logistics 1152


ESSA
Arlanda
Stockholm, SE
EBLG
Liège Airport
Liege, BE

Activity Log

Date Flight Route Aircraft Duration
No Flights Yet

Route Details

Aircraft Information
Primary: Boeing 737-800BCF
Backup: Not Available
Route Data
Distance: 689nm
Sched. Duration: 2h 00m
Avg. Duration: 0h 00m (-200m)
Times Flown: 0
Recm'd Route: Not Available
Planned Altitude: 36,000ft
Origin Wx: ESSA 271150Z 05010KT 9999 OVC016 M01/M05 Q0996 R01L/510267 R08/19//95 R01R/SNOCLO NOSIG
Dest. Wx: EBLG 271150Z 11010KT 9999 -RA FEW006 BKN008 02/01 Q0992 TEMPO 4000 -SNRA
Notes:

Financial History
Total Freight: 0lbs
Average Load: 0lbs/flt
Fuel Used: 0lbs
Avg. Fuel Used: 0lbs/flt
Fuel Expense: $0
Avg. Fuel Expense: $0
Avg. Fuel Cost: $0/lbs
Total Gross Income: $0
Pilot Pay: $0
Total Expenses: $0
Total Revenue: $0
Average Revenue: $0